sensor_id;sensor_type;location;lat;lon;timestamp;pressure;altitude;pressure_sealevel;temperature;humidity
32083;BME280;18597;48.328;7.932;2023-08-01T00:01:02;98518.00;;;18.09;100.00
32083;BME280;18597;48.328;7.932;2023-08-01T00:03:28;98516.34;;;18.14;100.00
32083;BME280;18597;48.328;7.932;2023-08-01T00:05:54;98501.19;;;18.07;100.00
32083;BME280;18597;48.328;7.932;2023-08-01T00:08:21;98488.66;;;18.06;100.00
32083;BME280;18597;48.328;7.932;2023-08-01T00:11:02;98484.31;;;18.11;100.00
32083;BME280;18597;48.328;7.932;2023-08-01T00:13:28;98477.25;;;18.17;100.00
32083;BME280;18597;48.328;7.932;2023-08-01T00:15:54;98471.03;;;18.16;100.00
32083;BME280;18597;48.328;7.932;2023-08-01T00:18:20;98472.06;;;18.22;100.00
32083;BME280;18597;48.328;7.932;2023-08-01T00:20:46;98465.81;;;18.15;100.00
32083;BME280;18597;48.328;7.932;2023-08-01T00:23:11;98468.31;;;18.16;100.00
32083;BME280;18597;48.328;7.932;2023-08-01T00:25:37;98467.88;;;18.19;100.00
32083;BME280;18597;48.328;7.932;2023-08-01T00:28:03;98462.28;;;18.21;100.00
32083;BME280;18597;48.328;7.932;2023-08-01T00:30:29;98455.03;;;18.21;100.00
32083;BME280;18597;48.328;7.932;2023-08-01T00:32:55;98455.03;;;18.21;100.00
32083;BME280;18597;48.328;7.932;2023-08-01T00:35:21;98453.94;;;18.42;100.00
32083;BME280;18597;48.328;7.932;2023-08-01T00:37:47;98449.13;;;18.57;100.00
32083;BME280;18597;48.328;7.932;2023-08-01T00:40:12;98447.47;;;18.56;100.00
32083;BME280;18597;48.328;7.932;2023-08-01T00:42:38;98442.28;;;18.75;100.00
32083;BME280;18597;48.328;7.932;2023-08-01T00:45:05;98455.97;;;18.80;100.00
32083;BME280;18597;48.328;7.932;2023-08-01T00:47:31;98459.47;;;19.00;100.00
32083;BME280;18597;48.328;7.932;2023-08-01T00:49:57;98461.56;;;18.92;100.00
32083;BME280;18597;48.328;7.932;2023-08-01T00:52:23;98445.53;;;18.97;100.00
32083;BME280;18597;48.328;7.932;2023-08-01T00:54:48;98454.03;;;19.07;100.00
32083;BME280;18597;48.328;7.932;2023-08-01T00:57:14;98444.47;;;19.04;100.00
32083;BME280;18597;48.328;7.932;2023-08-01T00:59:40;98431.38;;;19.39;100.00
32083;BME280;18597;48.328;7.932;2023-08-01T01:02:06;98420.69;;;19.51;100.00
32083;BME280;18597;48.328;7.932;2023-08-01T01:04:32;98417.72;;;19.66;100.00
32083;BME280;18597;48.328;7.932;2023-08-01T01:07:02;98414.00;;;19.54;100.00
32083;BME280;18597;48.328;7.932;2023-08-01T01:09:30;98412.47;;;19.64;100.00
32083;BME280;18597;48.328;7.932;2023-08-01T01:11:58;98420.75;;;19.76;100.00
32083;BME280;18597;48.328;7.932;2023-08-01T01:14:26;98415.78;;;19.98;100.00
32083;BME280;18597;48.328;7.932;2023-08-01T01:16:52;98415.34;;;20.01;100.00
32083;BME280;18597;48.328;7.932;2023-08-01T01:19:18;98401.78;;;20.01;100.00
32083;BME280;18597;48.328;7.932;2023-08-01T01:21:45;98407.91;;;20.15;100.00
32083;BME280;18597;48.328;7.932;2023-08-01T01:24:14;98410.09;;;20.06;100.00
32083;BME280;18597;48.328;7.932;2023-08-01T01:26:41;98410.31;;;20.05;100.00
32083;BME280;18597;48.328;7.932;2023-08-01T01:29:09;98397.63;;;19.99;100.00
32083;BME280;18597;48.328;7.932;2023-08-01T01:31:36;98391.56;;;20.03;100.00
32083;BME280;18597;48.328;7.932;2023-08-01T01:34:03;98402.19;;;20.05;100.00
32083;BME280;18597;48.328;7.932;2023-08-01T01:36:29;98400.56;;;19.97;100.00
32083;BME280;18597;48.328;7.932;2023-08-01T01:38:55;98409.31;;;19.99;100.00
32083;BME280;18597;48.328;7.932;2023-08-01T01:41:21;98404.56;;;20.19;100.00
32083;BME280;18597;48.328;7.932;2023-08-01T01:43:48;98392.19;;;20.23;100.00
32083;BME280;18597;48.328;7.932;2023-08-01T01:46:14;98390.00;;;20.14;100.00
32083;BME280;18597;48.328;7.932;2023-08-01T01:48:40;98389.28;;;20.00;100.00
32083;BME280;18597;48.328;7.932;2023-08-01T01:51:08;98392.34;;;20.10;100.00
32083;BME280;18597;48.328;7.932;2023-08-01T01:53:33;98388.78;;;20.10;100.00
32083;BME280;18597;48.328;7.932;2023-08-01T01:55:59;98392.81;;;20.26;100.00
32083;BME280;18597;48.328;7.932;2023-08-01T01:58:25;98390.72;;;20.28;100.00
32083;BME280;18597;48.328;7.932;2023-08-01T02:00:51;98397.97;;;20.34;100.00
32083;BME280;18597;48.328;7.932;2023-08-01T02:03:16;98387.91;;;20.59;95.75
32083;BME280;18597;48.328;7.932;2023-08-01T02:05:42;98393.50;;;20.64;98.04
32083;BME280;18597;48.328;7.932;2023-08-01T02:08:08;98386.00;;;20.60;99.29
32083;BME280;18597;48.328;7.932;2023-08-01T02:10:34;98389.78;;;20.59;98.73
32083;BME280;18597;48.328;7.932;2023-08-01T02:12:59;98393.41;;;20.53;100.00
32083;BME280;18597;48.328;7.932;2023-08-01T02:15:26;98397.94;;;20.59;98.29
32083;BME280;18597;48.328;7.932;2023-08-01T02:17:51;98403.28;;;20.65;98.15
32083;BME280;18597;48.328;7.932;2023-08-01T02:20:17;98393.13;;;20.79;92.37
32083;BME280;18597;48.328;7.932;2023-08-01T02:22:43;98402.13;;;20.91;92.95
32083;BME280;18597;48.328;7.932;2023-08-01T02:25:09;98397.41;;;20.87;95.57
32083;BME280;18597;48.328;7.932;2023-08-01T02:27:34;98404.53;;;20.99;93.00
32083;BME280;18597;48.328;7.932;2023-08-01T02:30:00;98411.94;;;20.92;93.86
32083;BME280;18597;48.328;7.932;2023-08-01T02:32:26;98404.25;;;20.89;94.53
32083;BME280;18597;48.328;7.932;2023-08-01T02:34:52;98402.28;;;20.96;93.74
32083;BME280;18597;48.328;7.932;2023-08-01T02:37:18;98401.03;;;20.81;100.00
32083;BME280;18597;48.328;7.932;2023-08-01T02:39:43;98395.66;;;20.74;100.00
32083;BME280;18597;48.328;7.932;2023-08-01T02:42:09;98395.28;;;20.89;99.99
32083;BME280;18597;48.328;7.932;2023-08-01T02:44:35;98399.56;;;20.78;99.65
32083;BME280;18597;48.328;7.932;2023-08-01T02:47:01;98398.97;;;20.76;99.84
32083;BME280;18597;48.328;7.932;2023-08-01T02:49:27;98397.47;;;20.62;100.00
32083;BME280;18597;48.328;7.932;2023-08-01T02:51:52;98390.78;;;20.64;100.00
32083;BME280;18597;48.328;7.932;2023-08-01T02:54:18;98389.00;;;20.70;97.17
32083;BME280;18597;48.328;7.932;2023-08-01T02:56:44;98410.06;;;20.74;100.00
32083;BME280;18597;48.328;7.932;2023-08-01T02:59:10;98417.09;;;20.64;100.00
32083;BME280;18597;48.328;7.932;2023-08-01T03:01:37;98412.91;;;20.61;100.00
32083;BME280;18597;48.328;7.932;2023-08-01T03:04:05;98401.56;;;20.71;96.90
32083;BME280;18597;48.328;7.932;2023-08-01T03:06:32;98399.44;;;20.73;96.71
32083;BME280;18597;48.328;7.932;2023-08-01T03:08:58;98408.53;;;20.60;98.18
32083;BME280;18597;48.328;7.932;2023-08-01T03:11:25;98419.56;;;20.65;98.51
32083;BME280;18597;48.328;7.932;2023-08-01T03:13:51;98398.16;;;20.57;99.44
32083;BME280;18597;48.328;7.932;2023-08-01T03:16:17;98409.66;;;20.53;100.00
32083;BME280;18597;48.328;7.932;2023-08-01T03:18:43;98411.06;;;20.37;100.00
32083;BME280;18597;48.328;7.932;2023-08-01T03:21:10;98401.91;;;20.31;100.00
32083;BME280;18597;48.328;7.932;2023-08-01T03:23:36;98408.19;;;20.32;100.00
32083;BME280;18597;48.328;7.932;2023-08-01T03:26:02;98393.09;;;20.17;100.00
32083;BME280;18597;48.328;7.932;2023-08-01T03:28:28;98397.25;;;20.20;100.00
32083;BME280;18597;48.328;7.932;2023-08-01T03:30:54;98392.34;;;20.10;100.00
32083;BME280;18597;48.328;7.932;2023-08-01T03:33:21;98385.63;;;20.13;100.00
32083;BME280;18597;48.328;7.932;2023-08-01T03:35:46;98375.72;;;20.00;100.00
32083;BME280;18597;48.328;7.932;2023-08-01T03:38:12;98374.38;;;20.09;100.00
32083;BME280;18597;48.328;7.932;2023-08-01T03:40:38;98360.63;;;20.11;100.00
32083;BME280;18597;48.328;7.932;2023-08-01T03:43:04;98339.38;;;20.08;100.00
32083;BME280;18597;48.328;7.932;2023-08-01T03:45:32;98333.47;;;19.92;100.00
32083;BME280;18597;48.328;7.932;2023-08-01T03:47:58;98307.06;;;19.88;100.00
32083;BME280;18597;48.328;7.932;2023-08-01T03:50:26;98292.28;;;19.84;100.00
32083;BME280;18597;48.328;7.932;2023-08-01T03:52:52;98289.97;;;19.62;100.00
32083;BME280;18597;48.328;7.932;2023-08-01T03:55:18;98313.00;;;19.47;100.00
32083;BME280;18597;48.328;7.932;2023-08-01T03:57:44;98329.75;;;19.37;100.00
32083;BME280;18597;48.328;7.932;2023-08-01T04:00:10;98309.78;;;19.31;100.00
32083;BME280;18597;48.328;7.932;2023-08-01T04:02:41;98279.81;;;19.26;100.00
32083;BME280;18597;48.328;7.932;2023-08-01T04:05:08;98282.13;;;19.23;100.00
32083;BME280;18597;48.328;7.932;2023-08-01T04:07:36;98258.06;;;19.15;100.00
32083;BME280;18597;48.328;7.932;2023-08-01T04:10:02;98218.31;;;19.08;100.00
32083;BME280;18597;48.328;7.932;2023-08-01T04:12:32;98185.50;;;18.98;100.00
32083;BME280;18597;48.328;7.932;2023-08-01T04:14:58;98172.63;;;18.94;100.00
32083;BME280;18597;48.328;7.932;2023-08-01T04:17:24;98249.31;;;18.81;100.00
32083;BME280;18597;48.328;7.932;2023-08-01T04:19:50;98231.38;;;18.87;100.00
32083;BME280;18597;48.328;7.932;2023-08-01T04:22:16;98218.63;;;18.94;100.00
32083;BME280;18597;48.328;7.932;2023-08-01T04:24:42;98191.84;;;19.10;100.00
32083;BME280;18597;48.328;7.932;2023-08-01T04:27:07;98192.63;;;19.18;100.00
32083;BME280;18597;48.328;7.932;2023-08-01T04:29:34;98192.19;;;19.21;100.00
32083;BME280;18597;48.328;7.932;2023-08-01T04:32:00;98212.22;;;19.20;100.00
32083;BME280;18597;48.328;7.932;2023-08-01T04:34:25;98256.81;;;19.10;100.00
32083;BME280;18597;48.328;7.932;2023-08-01T04:36:51;98259.88;;;19.21;100.00
32083;BME280;18597;48.328;7.932;2023-08-01T04:39:17;98274.47;;;19.20;100.00
32083;BME280;18597;48.328;7.932;2023-08-01T04:41:43;98251.91;;;19.26;100.00
32083;BME280;18597;48.328;7.932;2023-08-01T04:44:09;98242.72;;;19.27;100.00
32083;BME280;18597;48.328;7.932;2023-08-01T04:46:34;98271.03;;;19.31;100.00
32083;BME280;18597;48.328;7.932;2023-08-01T04:49:00;98283.25;;;19.40;100.00
32083;BME280;18597;48.328;7.932;2023-08-01T04:51:26;98289.72;;;19.39;100.00
32083;BME280;18597;48.328;7.932;2023-08-01T04:53:52;98289.72;;;19.39;100.00
32083;BME280;18597;48.328;7.932;2023-08-01T04:56:18;98276.00;;;19.34;100.00
32083;BME280;18597;48.328;7.932;2023-08-01T04:58:43;98279.13;;;19.37;100.00
32083;BME280;18597;48.328;7.932;2023-08-01T05:01:09;98291.59;;;19.38;100.00
32083;BME280;18597;48.328;7.932;2023-08-01T05:03:35;98281.03;;;19.30;100.00
32083;BME280;18597;48.328;7.932;2023-08-01T05:06:01;98293.06;;;19.34;100.00
32083;BME280;18597;48.328;7.932;2023-08-01T05:08:26;98313.44;;;19.44;100.00
32083;BME280;18597;48.328;7.932;2023-08-01T05:10:52;98330.47;;;19.57;100.00
32083;BME280;18597;48.328;7.932;2023-08-01T05:13:18;98306.16;;;19.44;100.00
32083;BME280;18597;48.328;7.932;2023-08-01T05:15:45;98313.22;;;19.45;100.00
32083;BME280;18597;48.328;7.932;2023-08-01T05:18:16;98307.56;;;19.47;100.00
32083;BME280;18597;48.328;7.932;2023-08-01T05:20:42;98317.91;;;19.56;100.00
32083;BME280;18597;48.328;7.932;2023-08-01T05:23:08;98295.25;;;19.57;100.00
32083;BME280;18597;48.328;7.932;2023-08-01T05:25:33;98304.59;;;19.55;100.00
32083;BME280;18597;48.328;7.932;2023-08-01T05:28:00;98315.06;;;19.51;100.00
32083;BME280;18597;48.328;7.932;2023-08-01T05:30:25;98308.41;;;19.47;100.00
32083;BME280;18597;48.328;7.932;2023-08-01T05:32:51;98317.75;;;19.51;100.00
32083;BME280;18597;48.328;7.932;2023-08-01T05:35:19;98319.00;;;19.49;100.00
32083;BME280;18597;48.328;7.932;2023-08-01T05:37:45;98317.06;;;19.56;100.00
32083;BME280;18597;48.328;7.932;2023-08-01T05:40:12;98309.34;;;19.66;100.00
32083;BME280;18597;48.328;7.932;2023-08-01T05:42:37;98295.84;;;19.59;100.00
32083;BME280;18597;48.328;7.932;2023-08-01T05:45:04;98279.72;;;19.64;100.00
32083;BME280;18597;48.328;7.932;2023-08-01T05:47:30;98298.09;;;19.62;100.00
32083;BME280;18597;48.328;7.932;2023-08-01T05:49:56;98288.97;;;19.57;100.00
32083;BME280;18597;48.328;7.932;2023-08-01T05:52:22;98298.09;;;19.62;100.00
32083;BME280;18597;48.328;7.932;2023-08-01T05:54:48;98302.38;;;19.45;100.00
32083;BME280;18597;48.328;7.932;2023-08-01T05:57:14;98323.59;;;19.48;100.00
32083;BME280;18597;48.328;7.932;2023-08-01T05:59:40;98322.66;;;19.36;100.00
32083;BME280;18597;48.328;7.932;2023-08-01T06:02:06;98303.75;;;19.29;100.00
32083;BME280;18597;48.328;7.932;2023-08-01T06:04:32;98289.34;;;19.35;100.00
32083;BME280;18597;48.328;7.932;2023-08-01T06:06:58;98289.66;;;19.46;100.00
32083;BME280;18597;48.328;7.932;2023-08-01T06:09:25;98301.28;;;19.53;100.00
32083;BME280;18597;48.328;7.932;2023-08-01T06:11:51;98309.19;;;19.54;100.00
32083;BME280;18597;48.328;7.932;2023-08-01T06:14:17;98320.03;;;19.54;100.00
32083;BME280;18597;48.328;7.932;2023-08-01T06:16:43;98316.69;;;19.59;100.00
32083;BME280;18597;48.328;7.932;2023-08-01T06:19:09;98336.47;;;19.59;100.00
32083;BME280;18597;48.328;7.932;2023-08-01T06:21:35;98327.53;;;19.52;100.00
32083;BME280;18597;48.328;7.932;2023-08-01T06:24:00;98320.28;;;19.46;100.00
32083;BME280;18597;48.328;7.932;2023-08-01T06:26:28;98341.50;;;19.49;100.00
32083;BME280;18597;48.328;7.932;2023-08-01T06:28:54;98336.22;;;19.36;100.00
32083;BME280;18597;48.328;7.932;2023-08-01T06:31:21;98325.88;;;18.81;100.00
32083;BME280;18597;48.328;7.932;2023-08-01T06:33:47;98327.03;;;18.54;100.00
32083;BME280;18597;48.328;7.932;2023-08-01T06:36:12;98321.22;;;18.44;100.00
32083;BME280;18597;48.328;7.932;2023-08-01T06:38:39;98322.53;;;18.28;100.00
32083;BME280;18597;48.328;7.932;2023-08-01T06:41:05;98330.69;;;18.15;100.00
32083;BME280;18597;48.328;7.932;2023-08-01T06:43:31;98305.31;;;18.16;100.00
32083;BME280;18597;48.328;7.932;2023-08-01T06:45:56;98310.75;;;18.09;100.00
32083;BME280;18597;48.328;7.932;2023-08-01T06:48:22;98311.13;;;18.13;100.00
32083;BME280;18597;48.328;7.932;2023-08-01T06:50:48;98318.03;;;18.09;100.00
32083;BME280;18597;48.328;7.932;2023-08-01T06:53:14;98318.22;;;18.14;100.00
32083;BME280;18597;48.328;7.932;2023-08-01T06:55:39;98325.47;;;18.20;100.00
32083;BME280;18597;48.328;7.932;2023-08-01T06:58:06;98341.44;;;18.28;100.00
32083;BME280;18597;48.328;7.932;2023-08-01T07:00:31;98337.66;;;18.42;100.00
32083;BME280;18597;48.328;7.932;2023-08-01T07:02:57;98324.75;;;18.51;100.00
32083;BME280;18597;48.328;7.932;2023-08-01T07:05:23;98327.88;;;18.54;100.00
32083;BME280;18597;48.328;7.932;2023-08-01T07:07:50;98328.09;;;18.53;100.00
32083;BME280;18597;48.328;7.932;2023-08-01T07:10:15;98332.69;;;18.46;100.00
32083;BME280;18597;48.328;7.932;2023-08-01T07:12:41;98346.22;;;18.39;100.00
32083;BME280;18597;48.328;7.932;2023-08-01T07:15:08;98352.31;;;18.21;100.00
32083;BME280;18597;48.328;7.932;2023-08-01T07:17:34;98343.78;;;18.11;100.00
32083;BME280;18597;48.328;7.932;2023-08-01T07:20:00;98348.81;;;17.94;100.00
32083;BME280;18597;48.328;7.932;2023-08-01T07:22:26;98338.44;;;17.78;100.00
32083;BME280;18597;48.328;7.932;2023-08-01T07:24:54;98346.09;;;17.55;100.00
32083;BME280;18597;48.328;7.932;2023-08-01T07:27:20;98346.91;;;17.48;100.00
32083;BME280;18597;48.328;7.932;2023-08-01T07:29:46;98355.00;;;17.42;100.00
32083;BME280;18597;48.328;7.932;2023-08-01T07:32:12;98342.09;;;17.37;100.00
32083;BME280;18597;48.328;7.932;2023-08-01T07:34:38;98334.03;;;17.31;100.00
32083;BME280;18597;48.328;7.932;2023-08-01T07:37:04;98304.94;;;17.33;100.00
32083;BME280;18597;48.328;7.932;2023-08-01T07:39:29;98314.09;;;17.38;100.00
32083;BME280;18597;48.328;7.932;2023-08-01T07:41:56;98306.41;;;17.48;100.00
32083;BME280;18597;48.328;7.932;2023-08-01T07:44:22;98290.81;;;17.51;100.00
32083;BME280;18597;48.328;7.932;2023-08-01T07:46:48;98306.63;;;17.54;100.00
32083;BME280;18597;48.328;7.932;2023-08-01T07:49:13;98321.34;;;17.44;100.00
32083;BME280;18597;48.328;7.932;2023-08-01T07:51:39;98334.44;;;17.41;100.00
32083;BME280;18597;48.328;7.932;2023-08-01T07:54:05;98371.78;;;17.37;100.00
32083;BME280;18597;48.328;7.932;2023-08-01T07:56:31;98362.50;;;17.46;100.00
32083;BME280;18597;48.328;7.932;2023-08-01T07:58:56;98358.13;;;17.59;100.00
32083;BME280;18597;48.328;7.932;2023-08-01T08:01:22;98357.28;;;17.52;100.00
32083;BME280;18597;48.328;7.932;2023-08-01T08:03:48;98353.16;;;17.56;100.00
32083;BME280;18597;48.328;7.932;2023-08-01T08:06:14;98334.03;;;17.57;100.00
32083;BME280;18597;48.328;7.932;2023-08-01T08:08:40;98327.59;;;17.52;100.00
32083;BME280;18597;48.328;7.932;2023-08-01T08:11:06;98329.84;;;17.68;100.00
32083;BME280;18597;48.328;7.932;2023-08-01T08:13:31;98336.94;;;17.82;100.00
32083;BME280;18597;48.328;7.932;2023-08-01T08:15:58;98336.13;;;17.82;100.00
32083;BME280;18597;48.328;7.932;2023-08-01T08:18:24;98327.19;;;17.81;100.00
32083;BME280;18597;48.328;7.932;2023-08-01T08:20:50;98332.59;;;17.81;100.00
32083;BME280;18597;48.328;7.932;2023-08-01T08:23:16;98331.75;;;17.87;100.00
32083;BME280;18597;48.328;7.932;2023-08-01T08:25:43;98330.72;;;17.88;100.00
32083;BME280;18597;48.328;7.932;2023-08-01T08:28:13;98325.69;;;18.05;100.00
32083;BME280;18597;48.328;7.932;2023-08-01T08:30:39;98334.81;;;18.24;100.00
32083;BME280;18597;48.328;7.932;2023-08-01T08:33:05;98337.06;;;18.40;100.00
32083;BME280;18597;48.328;7.932;2023-08-01T08:35:33;98336.34;;;18.65;100.00
32083;BME280;18597;48.328;7.932;2023-08-01T08:38:03;98342.88;;;18.95;100.00
32083;BME280;18597;48.328;7.932;2023-08-01T08:40:32;98353.25;;;19.43;100.00
32083;BME280;18597;48.328;7.932;2023-08-01T08:43:01;98358.09;;;19.91;100.00
32083;BME280;18597;48.328;7.932;2023-08-01T08:45:32;98346.63;;;20.14;100.00
32083;BME280;18597;48.328;7.932;2023-08-01T08:48:05;98341.50;;;20.49;100.00
32083;BME280;18597;48.328;7.932;2023-08-01T08:50:35;98337.34;;;20.65;100.00
32083;BME280;18597;48.328;7.932;2023-08-01T08:53:02;98339.06;;;20.59;100.00
32083;BME280;18597;48.328;7.932;2023-08-01T08:55:29;98333.72;;;20.53;100.00
32083;BME280;18597;48.328;7.932;2023-08-01T08:57:57;98346.84;;;20.31;100.00
32083;BME280;18597;48.328;7.932;2023-08-01T09:00:25;98355.06;;;20.49;100.00
32083;BME280;18597;48.328;7.932;2023-08-01T09:02:53;98369.53;;;20.36;100.00
32083;BME280;18597;48.328;7.932;2023-08-01T09:05:20;98374.34;;;20.16;100.00
32083;BME280;18597;48.328;7.932;2023-08-01T09:07:49;98379.78;;;19.91;100.00
32083;BME280;18597;48.328;7.932;2023-08-01T09:10:15;98365.69;;;19.57;100.00
32083;BME280;18597;48.328;7.932;2023-08-01T09:12:41;98365.53;;;19.39;100.00
32083;BME280;18597;48.328;7.932;2023-08-01T09:15:08;98370.16;;;19.32;100.00
32083;BME280;18597;48.328;7.932;2023-08-01T09:17:35;98370.09;;;19.45;100.00
32083;BME280;18597;48.328;7.932;2023-08-01T09:20:05;98372.31;;;19.55;100.00
32083;BME280;18597;48.328;7.932;2023-08-01T09:22:43;98377.78;;;19.48;100.00
32083;BME280;18597;48.328;7.932;2023-08-01T09:25:09;98378.44;;;19.44;100.00
32083;BME280;18597;48.328;7.932;2023-08-01T09:27:35;98391.25;;;19.61;100.00
32083;BME280;18597;48.328;7.932;2023-08-01T09:30:16;98379.00;;;19.84;100.00
32083;BME280;18597;48.328;7.932;2023-08-01T09:32:58;98388.56;;;20.11;100.00
32083;BME280;18597;48.328;7.932;2023-08-01T09:35:25;98383.94;;;20.37;100.00
32083;BME280;18597;48.328;7.932;2023-08-01T09:37:51;98401.41;;;20.66;100.00
32083;BME280;18597;48.328;7.932;2023-08-01T09:40:17;98401.16;;;21.04;100.00
32083;BME280;18597;48.328;7.932;2023-08-01T09:42:44;98406.53;;;21.22;100.00
32083;BME280;18597;48.328;7.932;2023-08-01T09:45:14;98415.81;;;21.15;100.00
32083;BME280;18597;48.328;7.932;2023-08-01T09:47:42;98410.28;;;21.10;100.00
32083;BME280;18597;48.328;7.932;2023-08-01T09:50:11;98418.19;;;21.11;100.00
32083;BME280;18597;48.328;7.932;2023-08-01T09:52:39;98414.03;;;21.57;100.00
32083;BME280;18597;48.328;7.932;2023-08-01T09:55:05;98414.63;;;22.71;100.00
32083;BME280;18597;48.328;7.932;2023-08-01T09:57:31;98415.66;;;23.91;100.00
32083;BME280;18597;48.328;7.932;2023-08-01T09:59:58;98408.00;;;24.38;100.00
32083;BME280;18597;48.328;7.932;2023-08-01T10:02:26;98398.94;;;24.54;96.59
32083;BME280;18597;48.328;7.932;2023-08-01T10:04:58;98399.25;;;24.97;97.50
32083;BME280;18597;48.328;7.932;2023-08-01T10:07:28;98411.44;;;25.82;88.87
32083;BME280;18597;48.328;7.932;2023-08-01T10:09:55;98404.59;;;27.01;77.38
32083;BME280;18597;48.328;7.932;2023-08-01T10:12:22;98406.19;;;27.64;77.72
32083;BME280;18597;48.328;7.932;2023-08-01T10:14:50;98410.94;;;28.20;69.84
32083;BME280;18597;48.328;7.932;2023-08-01T10:17:17;98400.50;;;28.32;65.55
32083;BME280;18597;48.328;7.932;2023-08-01T10:19:44;98408.75;;;28.12;68.08
32083;BME280;18597;48.328;7.932;2023-08-01T10:22:10;98405.13;;;27.81;66.71
32083;BME280;18597;48.328;7.932;2023-08-01T10:24:37;98408.16;;;28.25;58.70
32083;BME280;18597;48.328;7.932;2023-08-01T10:27:20;98418.00;;;28.77;60.41
32083;BME280;18597;48.328;7.932;2023-08-01T10:29:58;98415.47;;;29.11;59.31
32083;BME280;18597;48.328;7.932;2023-08-01T10:32:35;98410.88;;;28.71;60.35
32083;BME280;18597;48.328;7.932;2023-08-01T10:35:01;98416.97;;;28.37;59.94
32083;BME280;18597;48.328;7.932;2023-08-01T10:37:40;98419.41;;;27.88;64.96
32083;BME280;18597;48.328;7.932;2023-08-01T10:40:07;98413.31;;;26.40;69.54
32083;BME280;18597;48.328;7.932;2023-08-01T10:42:43;98415.03;;;25.11;82.74
32083;BME280;18597;48.328;7.932;2023-08-01T10:45:25;98416.53;;;24.42;89.79
32083;BME280;18597;48.328;7.932;2023-08-01T10:47:52;98440.75;;;24.38;93.49
32083;BME280;18597;48.328;7.932;2023-08-01T10:50:19;98436.50;;;24.14;95.87
32083;BME280;18597;48.328;7.932;2023-08-01T10:52:45;98442.00;;;23.85;93.56
32083;BME280;18597;48.328;7.932;2023-08-01T10:55:12;98447.88;;;23.94;96.61
32083;BME280;18597;48.328;7.932;2023-08-01T10:57:47;98443.00;;;24.41;93.06
32083;BME280;18597;48.328;7.932;2023-08-01T11:00:16;98429.16;;;24.86;87.71
32083;BME280;18597;48.328;7.932;2023-08-01T11:02:50;98430.59;;;25.60;84.08
32083;BME280;18597;48.328;7.932;2023-08-01T11:05:17;98442.94;;;26.48;71.17
32083;BME280;18597;48.328;7.932;2023-08-01T11:07:55;98444.78;;;26.80;69.67
32083;BME280;18597;48.328;7.932;2023-08-01T11:10:21;98441.34;;;27.00;71.02
32083;BME280;18597;48.328;7.932;2023-08-01T11:12:48;98451.63;;;26.77;69.63
32083;BME280;18597;48.328;7.932;2023-08-01T11:15:14;98453.50;;;26.03;66.98
32083;BME280;18597;48.328;7.932;2023-08-01T11:17:46;98454.13;;;24.95;70.97
32083;BME280;18597;48.328;7.932;2023-08-01T11:20:13;98449.44;;;24.35;74.07
32083;BME280;18597;48.328;7.932;2023-08-01T11:23:04;98451.38;;;23.89;72.82
32083;BME280;18597;48.328;7.932;2023-08-01T11:25:37;98444.38;;;23.65;75.96
32083;BME280;18597;48.328;7.932;2023-08-01T11:28:10;98440.09;;;23.69;84.04
32083;BME280;18597;48.328;7.932;2023-08-01T11:30:37;98448.66;;;23.61;77.36
32083;BME280;18597;48.328;7.932;2023-08-01T11:33:28;98443.31;;;23.54;78.23
32083;BME280;18597;48.328;7.932;2023-08-01T11:35:56;98462.91;;;23.51;74.97
32083;BME280;18597;48.328;7.932;2023-08-01T11:38:25;98453.50;;;23.59;77.61
32083;BME280;18597;48.328;7.932;2023-08-01T11:40:52;98461.09;;;23.68;71.41
32083;BME280;18597;48.328;7.932;2023-08-01T11:43:18;98453.50;;;23.87;66.74
32083;BME280;18597;48.328;7.932;2023-08-01T11:45:55;98454.50;;;23.81;69.71
32083;BME280;18597;48.328;7.932;2023-08-01T11:48:22;98447.63;;;23.78;70.76
32083;BME280;18597;48.328;7.932;2023-08-01T11:50:49;98444.63;;;23.80;69.74
32083;BME280;18597;48.328;7.932;2023-08-01T11:53:20;98441.09;;;23.79;63.35
32083;BME280;18597;48.328;7.932;2023-08-01T11:56:03;98452.53;;;23.93;65.54
32083;BME280;18597;48.328;7.932;2023-08-01T11:58:32;98453.19;;;24.00;65.89
32083;BME280;18597;48.328;7.932;2023-08-01T12:01:14;98441.28;;;24.06;59.50
32083;BME280;18597;48.328;7.932;2023-08-01T12:03:55;98440.06;;;23.97;56.50
32083;BME280;18597;48.328;7.932;2023-08-01T12:06:23;98442.25;;;23.67;56.72
32083;BME280;18597;48.328;7.932;2023-08-01T12:08:52;98432.88;;;23.63;56.63
32083;BME280;18597;48.328;7.932;2023-08-01T12:11:26;98428.16;;;23.58;58.44
32083;BME280;18597;48.328;7.932;2023-08-01T12:14:12;98436.34;;;24.03;58.11
32083;BME280;18597;48.328;7.932;2023-08-01T12:16:41;98440.84;;;24.43;55.85
32083;BME280;18597;48.328;7.932;2023-08-01T12:19:09;98433.13;;;24.40;53.86
32083;BME280;18597;48.328;7.932;2023-08-01T12:21:36;98434.44;;;24.54;54.09
32083;BME280;18597;48.328;7.932;2023-08-01T12:24:03;98432.03;;;24.97;54.22
32083;BME280;18597;48.328;7.932;2023-08-01T12:26:29;98430.13;;;25.41;50.39
32083;BME280;18597;48.328;7.932;2023-08-01T12:28:55;98432.16;;;25.29;51.53
32083;BME280;18597;48.328;7.932;2023-08-01T12:31:22;98419.97;;;25.14;51.59
32083;BME280;18597;48.328;7.932;2023-08-01T12:33:48;98435.34;;;25.21;51.17
32083;BME280;18597;48.328;7.932;2023-08-01T12:36:15;98436.72;;;25.18;51.24
32083;BME280;18597;48.328;7.932;2023-08-01T12:38:41;98447.50;;;25.08;52.76
32083;BME280;18597;48.328;7.932;2023-08-01T12:41:07;98442.94;;;24.97;52.57
32083;BME280;18597;48.328;7.932;2023-08-01T12:43:33;98436.34;;;24.92;52.84
32083;BME280;18597;48.328;7.932;2023-08-01T12:45:59;98440.97;;;24.92;52.90
32083;BME280;18597;48.328;7.932;2023-08-01T12:48:26;98444.31;;;25.16;54.23
32083;BME280;18597;48.328;7.932;2023-08-01T12:50:52;98446.94;;;25.28;54.25
32083;BME280;18597;48.328;7.932;2023-08-01T12:53:19;98451.59;;;25.54;53.46